Time;durP1;ratioP1;P1;durP2;ratioP2;P2;SDS_P1;SDS_P2;PMS_P1;PMS_P2;Temp;Humidity;BMP_temperature;BMP_pressure;BME280_temperature;BME280_humidity;BME280_pressure;Samples;Min_cycle;Max_cycle;Signal;HPM_P1;HPM_P2
2023/03/13 19:34:17;;;;;;;4.00;1.03;;;;;;;;;;5040210;27;1277438;-68
2023/03/13 19:39:51;;;;;;;1.93;1.10;;;23.10;99.90;;;;;;5104678;27;20548;-67
2023/03/13 19:42:17;;;;;;;11.32;10.35;;;22.90;99.90;;;;;;5105680;28;20476;-71
2023/03/13 19:46:28;;;;;;;6.90;1.50;;;22.80;99.90;;;;;;5123232;27;20589;-72
2023/03/13 20:04:33;;;;;;;6.90;2.40;;;16.50;99.90;;;;;;5126661;27;21208;-65
2023/03/13 20:07:01;;;;;;;9.20;2.57;;;15.80;99.90;;;;;;5109513;28;20247;-65
2023/03/13 20:09:26;;;;;;;6.67;2.80;;;15.30;99.90;;;;;;5108722;28;20677;-65
2023/03/13 20:11:52;;;;;;;5.67;2.37;;;15.10;99.90;;;;;;5109456;28;20177;-58
2023/03/13 20:14:18;;;;;;;7.47;2.93;;;14.80;99.90;;;;;;5127751;27;20163;-55
2023/03/13 20:16:47;;;;;;;8.87;2.57;;;14.80;99.90;;;;;;5128640;27;20178;-58
2023/03/13 20:19:13;;;;;;;9.73;3.07;;;14.70;99.90;;;;;;5109243;27;20760;-59
2023/03/13 20:21:41;;;;;;;6.40;3.30;;;14.60;99.90;;;;;;5127273;27;20836;-59
2023/03/13 20:24:09;;;;;;;10.57;3.40;;;14.50;99.90;;;;;;5110896;28;20213;-58
2023/03/13 20:26:36;;;;;;;7.93;3.23;;;14.40;99.90;;;;;;5129430;27;20167;-58
2023/03/13 20:29:03;;;;;;;6.63;2.83;;;14.40;99.90;;;;;;5129022;27;20308;-57
2023/03/13 20:31:30;;;;;;;12.77;3.57;;;14.30;99.90;;;;;;5129104;27;20163;-58
2023/03/13 20:33:58;;;;;;;12.17;3.77;;;14.20;99.90;;;;;;5128937;27;20182;-58
2023/03/13 20:36:24;;;;;;;8.60;3.27;;;14.20;99.90;;;;;;5129517;27;20174;-54
2023/03/13 20:38:50;;;;;;;12.63;4.27;;;14.10;99.90;;;;;;5111410;28;20765;-53
2023/03/13 20:41:18;;;;;;;8.50;3.90;;;14.10;99.90;;;;;;5113152;28;20219;-56
2023/03/13 20:43:43;;;;;;;6.53;3.97;;;14.10;99.90;;;;;;5113047;28;20518;-56
2023/03/13 20:46:09;;;;;;;9.37;3.70;;;14.00;99.90;;;;;;5112985;27;20176;-57
2023/03/13 20:48:38;;;;;;;8.97;3.10;;;13.90;99.90;;;;;;5112614;28;20171;-54
2023/03/13 20:51:05;;;;;;;11.93;3.40;;;13.90;99.90;;;;;;5112504;27;20171;-58
2023/03/13 20:53:35;;;;;;;4.97;3.03;;;13.80;99.90;;;;;;5092877;28;20179;-55
2023/03/13 20:56:02;;;;;;;8.07;3.23;;;13.70;99.90;;;;;;5110777;27;20167;-56
2023/03/13 20:58:29;;;;;;;8.30;3.13;;;13.70;99.90;;;;;;5110095;27;20201;-56
2023/03/13 21:00:58;;;;;;;10.43;2.53;;;13.70;99.90;;;;;;5126949;27;20174;-59
2023/03/13 21:03:23;;;;;;;15.07;3.33;;;13.70;99.90;;;;;;5126090;28;20237;-56
2023/03/13 21:05:52;;;;;;;10.73;3.67;;;13.70;99.90;;;;;;5108893;28;20175;-57
2023/03/13 21:08:17;;;;;;;6.43;3.03;;;13.60;99.90;;;;;;5127236;28;20206;-58
2023/03/13 21:10:44;;;;;;;7.97;2.80;;;13.60;99.90;;;;;;5108799;28;20175;-56
2023/03/13 21:13:11;;;;;;;5.87;3.03;;;13.60;99.90;;;;;;5127011;28;20171;-57
2023/03/13 21:15:39;;;;;;;10.67;3.23;;;13.60;99.90;;;;;;5097245;28;20171;-57
2023/03/13 21:18:05;;;;;;;6.07;3.03;;;13.60;99.90;;;;;;5095494;28;20175;-56
2023/03/13 21:20:31;;;;;;;8.37;3.17;;;13.60;99.90;;;;;;5093226;28;20175;-57
2023/03/13 21:22:57;;;;;;;10.47;3.23;;;13.60;99.90;;;;;;5093295;28;20211;-57
2023/03/13 21:25:23;;;;;;;9.07;3.00;;;13.60;99.90;;;;;;5110863;28;20224;-58
2023/03/13 21:27:48;;;;;;;7.30;2.90;;;13.60;99.90;;;;;;5113124;28;20182;-57
2023/03/13 21:30:17;;;;;;;6.87;3.20;;;13.60;99.90;;;;;;5112439;28;20492;-54
2023/03/13 21:32:43;;;;;;;7.73;2.60;;;13.50;99.90;;;;;;5093816;28;20211;-57
2023/03/13 21:35:10;;;;;;;5.53;2.57;;;13.50;99.90;;;;;;5111023;28;20167;-58
2023/03/13 21:37:37;;;;;;;8.87;2.83;;;13.50;99.90;;;;;;5094488;28;20179;-57
2023/03/13 21:40:05;;;;;;;6.70;2.77;;;13.50;99.90;;;;;;5093898;28;20167;-54
2023/03/13 21:42:36;;;;;;;7.97;2.60;;;13.40;99.90;;;;;;5113166;28;20207;-55
2023/03/13 21:45:05;;;;;;;4.97;2.40;;;13.40;99.90;;;;;;5112797;28;20171;-57
2023/03/13 21:47:35;;;;;;;6.53;2.97;;;13.30;99.90;;;;;;5113246;28;20171;-57
2023/03/13 21:50:05;;;;;;;3.33;2.30;;;13.30;99.90;;;;;;5097149;28;20171;-58
2023/03/13 21:52:31;;;;;;;4.00;2.13;;;13.30;99.90;;;;;;5097311;28;20711;-58
2023/03/13 21:54:59;;;;;;;3.27;2.47;;;13.30;99.90;;;;;;5115391;28;20170;-57
2023/03/13 21:57:25;;;;;;;5.93;2.77;;;13.30;99.90;;;;;;5116136;28;20250;-57
2023/03/13 21:59:52;;;;;;;6.80;3.23;;;13.30;99.90;;;;;;5095698;28;20787;-58
2023/03/13 22:02:18;;;;;;;6.73;2.50;;;13.20;99.90;;;;;;5093660;28;20171;-56
2023/03/13 22:04:44;;;;;;;7.30;3.07;;;13.10;99.90;;;;;;5112168;28;20221;-59
2023/03/13 22:07:10;;;;;;;7.23;3.23;;;13.10;99.90;;;;;;5112886;28;20159;-58
2023/03/13 22:09:36;;;;;;;5.43;2.70;;;13.10;99.90;;;;;;5094676;28;20263;-57
2023/03/13 22:12:01;;;;;;;11.67;3.50;;;13.10;99.90;;;;;;5094172;28;20201;-55
2023/03/13 22:14:28;;;;;;;7.07;3.17;;;13.10;99.90;;;;;;5093197;28;20596;-57
2023/03/13 22:16:53;;;;;;;6.60;3.77;;;13.00;99.90;;;;;;5094279;28;20175;-60
2023/03/13 22:19:19;;;;;;;2.13;2.03;;;13.10;99.90;;;;;;5112562;28;20168;-60
2023/03/13 22:21:45;;;;;;;4.57;2.30;;;13.10;99.90;;;;;;5111171;28;20264;-58
2023/03/13 22:24:12;;;;;;;4.67;2.67;;;13.00;99.90;;;;;;5112587;28;20226;-58
2023/03/13 22:26:38;;;;;;;4.70;1.97;;;13.10;99.90;;;;;;5094053;28;20175;-59
2023/03/13 22:29:03;;;;;;;7.07;2.40;;;13.00;99.90;;;;;;5094823;28;20167;-58
2023/03/13 22:31:29;;;;;;;2.23;1.67;;;13.10;99.90;;;;;;5111499;28;20179;-58
2023/03/13 22:33:55;;;;;;;3.20;2.47;;;13.00;99.90;;;;;;5093985;28;20610;-54
2023/03/13 22:36:20;;;;;;;5.80;2.90;;;13.00;99.90;;;;;;5095002;28;20185;-59
2023/03/13 22:38:47;;;;;;;2.70;1.90;;;13.00;99.90;;;;;;5093296;28;20171;-65
2023/03/13 22:41:16;;;;;;;3.77;2.00;;;13.10;99.90;;;;;;5096894;28;20220;-62
2023/03/13 22:43:43;;;;;;;2.97;1.60;;;13.00;99.90;;;;;;5114159;27;20195;-62
2023/03/13 22:46:10;;;;;;;3.20;1.67;;;13.00;99.90;;;;;;5115005;28;20550;-63
2023/03/13 22:48:36;;;;;;;2.97;1.77;;;13.00;99.90;;;;;;5116125;28;20175;-62
2023/03/13 22:51:11;;;;;;;2.97;1.90;;;13.00;99.90;;;;;;5099005;28;20168;-62
2023/03/13 22:53:39;;;;;;;6.63;2.10;;;13.10;99.90;;;;;;5098817;28;20175;-62
2023/03/13 22:56:05;;;;;;;4.17;1.70;;;13.00;99.90;;;;;;5116178;28;20372;-62
2023/03/13 22:58:33;;;;;;;4.70;1.90;;;12.90;99.90;;;;;;5097622;28;20209;-58
2023/03/13 23:00:58;;;;;;;3.47;1.50;;;12.90;99.90;;;;;;5112958;28;20228;-60
2023/03/13 23:03:25;;;;;;;4.67;2.13;;;12.90;99.90;;;;;;5103564;28;20244;-58
2023/03/13 23:05:51;;;;;;;3.40;1.60;;;12.80;99.90;;;;;;5069184;28;20614;-58
2023/03/13 23:08:17;;;;;;;3.53;1.90;;;12.80;99.90;;;;;;5067952;28;20173;-60
2023/03/13 23:10:44;;;;;;;3.47;1.57;;;12.80;99.90;;;;;;5064507;28;20278;-59
2023/03/13 23:13:10;;;;;;;5.60;1.90;;;12.70;99.90;;;;;;5063190;28;20169;-59
2023/03/13 23:15:37;;;;;;;7.10;2.07;;;12.70;99.90;;;;;;5065747;28;20171;-59
2023/03/13 23:18:05;;;;;;;8.60;2.23;;;12.60;99.90;;;;;;5062774;28;20260;-58
2023/03/13 23:20:35;;;;;;;4.10;2.10;;;12.60;99.90;;;;;;5060877;28;20271;-60
2023/03/13 23:23:00;;;;;;;1.73;1.53;;;12.60;99.90;;;;;;5057050;28;20252;-57
2023/03/13 23:25:26;;;;;;;4.77;2.53;;;12.60;99.90;;;;;;5059267;28;20252;-61
2023/03/13 23:27:51;;;;;;;6.73;2.37;;;12.60;99.90;;;;;;5061265;28;20169;-55
2023/03/13 23:30:18;;;;;;;6.87;2.40;;;12.60;99.90;;;;;;5063920;28;20774;-56
2023/03/13 23:32:47;;;;;;;4.03;2.10;;;12.50;99.90;;;;;;5065363;28;20246;-58
2023/03/13 23:35:13;;;;;;;4.80;2.03;;;12.50;99.90;;;;;;5068830;28;20707;-59
2023/03/13 23:37:52;;;;;;;4.73;2.10;;;12.50;99.90;;;;;;5073208;28;20183;-59
2023/03/13 23:40:19;;;;;;;4.23;1.90;;;12.50;99.90;;;;;;5073212;28;20279;-58
2023/03/13 23:42:46;;;;;;;4.57;2.23;;;12.50;99.90;;;;;;5072859;28;20496;-58
2023/03/13 23:45:13;;;;;;;7.53;2.47;;;12.50;99.90;;;;;;5072795;28;20275;-58
2023/03/13 23:47:38;;;;;;;4.17;1.90;;;12.50;99.90;;;;;;5072857;28;20559;-59
2023/03/13 23:50:05;;;;;;;4.73;2.27;;;12.50;99.90;;;;;;5071689;28;20183;-59
2023/03/13 23:52:34;;;;;;;4.23;2.30;;;12.50;99.90;;;;;;5073870;28;20171;-58
2023/03/13 23:55:01;;;;;;;5.27;2.73;;;12.50;99.90;;;;;;5074076;28;20234;-57
2023/03/13 23:57:27;;;;;;;3.87;2.13;;;12.40;99.90;;;;;;5072781;28;20560;-59
2023/03/13 23:59:54;;;;;;;5.40;2.03;;;12.40;99.90;;;;;;5072921;28;20226;-58
